Time;durP1;ratioP1;P1;durP2;ratioP2;P2;SDS_P1;SDS_P2;PMS_P1;PMS_P2;Temp;Humidity;BMP_temperature;BMP_pressure;BME280_temperature;BME280_humidity;BME280_pressure;Samples;Min_cycle;Max_cycle;Signal;HPM_P1;HPM_P2
2021/09/27 00:00:35;;;;;;;;;;;19.20;58.40;;;;;;5016759;28;88117;-49
2021/09/27 00:03:01;;;;;;;;;;;19.10;58.30;;;;;;5020037;28;88807;-50
2021/09/27 00:05:27;;;;;;;;;;;19.10;58.40;;;;;;5019515;28;89479;-48
2021/09/27 00:07:53;;;;;;;;;;;19.10;58.30;;;;;;5018296;28;87186;-49
2021/09/27 00:10:21;;;;;;;;;;;19.10;58.40;;;;;;5020121;28;87153;-49
2021/09/27 00:12:46;;;;;;;;;;;19.10;58.40;;;;;;5020568;28;86411;-49
2021/09/27 00:15:13;;;;;;;;;;;19.10;58.40;;;;;;5020023;28;87191;-49
2021/09/27 00:17:39;;;;;;;;;;;19.00;58.40;;;;;;5018856;28;88037;-49
2021/09/27 00:20:06;;;;;;;;;;;19.00;58.40;;;;;;5018563;28;88425;-49
2021/09/27 00:22:31;;;;;;;;;;;19.00;58.40;;;;;;5020956;28;88614;-50
2021/09/27 00:24:57;;;;;;;;;;;19.00;58.40;;;;;;5021131;28;89707;-49
2021/09/27 00:27:22;;;;;;;;;;;19.00;58.40;;;;;;5020845;28;87101;-50
2021/09/27 00:29:48;;;;;;;;;;;19.00;58.40;;;;;;5020117;28;87807;-50
2021/09/27 00:32:13;;;;;;;;;;;19.00;58.40;;;;;;5022162;28;87662;-50
2021/09/27 00:34:39;;;;;;;;;;;19.00;58.40;;;;;;5019968;28;87219;-49
2021/09/27 00:37:04;;;;;;;;;;;19.00;58.40;;;;;;5019354;28;87450;-49
2021/09/27 00:39:30;;;;;;;;;;;18.90;58.40;;;;;;5018872;28;87191;-49
2021/09/27 00:41:55;;;;;;;;;;;18.90;58.40;;;;;;5018894;28;88675;-50
2021/09/27 00:44:21;;;;;;;;;;;18.90;58.50;;;;;;5017547;28;89587;-50
2021/09/27 00:46:47;;;;;;;;;;;18.90;58.40;;;;;;5021295;28;88427;-50
2021/09/27 00:49:12;;;;;;;;;;;18.90;58.40;;;;;;5023145;28;88493;-49
2021/09/27 00:51:43;;;;;;;;;;;18.90;58.50;;;;;;5022593;28;88223;-50
2021/09/27 00:54:12;;;;;;;;;;;18.80;58.40;;;;;;5024915;28;88185;-49
2021/09/27 00:56:44;;;;;;;;;;;18.80;58.40;;;;;;5020025;28;88059;-50
2021/09/27 00:59:10;;;;;;;;;;;18.80;58.50;;;;;;5019109;28;88129;-49
2021/09/27 01:01:36;;;;;;;;;;;18.80;58.50;;;;;;5022591;28;86510;-49
2021/09/27 01:04:02;;;;;;;;;;;18.80;59.10;;;;;;5021129;28;87189;-48
2021/09/27 01:06:30;;;;;;;;;;;18.80;58.50;;;;;;5019592;28;87145;-50
2021/09/27 01:09:11;;;;;;;;;;;18.80;58.50;;;;;;5021586;28;88192;-50
2021/09/27 01:11:36;;;;;;;;;;;18.80;58.50;;;;;;5020930;28;88094;-51
2021/09/27 01:14:05;;;;;;;;;;;18.70;58.50;;;;;;5020690;28;87147;-48
2021/09/27 01:16:59;;;;;;;;;;;18.70;58.50;;;;;;5025626;28;87163;-50
2021/09/27 01:19:43;;;;;;;;;;;18.70;58.60;;;;;;5002243;28;87308;-50
2021/09/27 01:22:18;;;;;;;;;;;18.70;58.50;;;;;;5018251;28;87263;-51
2021/09/27 01:24:52;;;;;;;;;;;18.70;58.50;;;;;;5019172;28;87817;-49
2021/09/27 01:27:18;;;;;;;;;;;18.70;58.60;;;;;;5020820;28;86414;-50
2021/09/27 01:30:03;;;;;;;;;;;18.60;58.50;;;;;;5019727;28;87165;-49
2021/09/27 01:32:47;;;;;;;;;;;18.70;58.60;;;;;;5018785;28;90236;-48
2021/09/27 01:35:47;;;;;;;;;;;18.60;58.60;;;;;;5021719;28;88140;-49
2021/09/27 01:38:13;;;;;;;;;;;18.60;58.60;;;;;;4999191;28;88069;-49
2021/09/27 01:40:47;;;;;;;;;;;18.60;58.60;;;;;;5018551;28;88396;-50
2021/09/27 01:43:13;;;;;;;;;;;18.60;58.60;;;;;;5021323;28;88824;-49
2021/09/27 01:46:11;;;;;;;;;;;18.50;58.60;;;;;;5020670;28;87671;-49
2021/09/27 01:48:48;;;;;;;;;;;18.50;58.60;;;;;;5005375;28;88172;-50
2021/09/27 01:51:34;;;;;;;;;;;18.50;58.60;;;;;;5021566;28;87854;-50
2021/09/27 01:54:06;;;;;;;;;;;18.50;58.60;;;;;;5021115;28;87419;-49
2021/09/27 01:56:41;;;;;;;;;;;18.50;58.60;;;;;;5020120;28;87162;-49
2021/09/27 01:59:07;;;;;;;;;;;18.40;58.60;;;;;;5019754;28;88892;-50
2021/09/27 02:01:53;;;;;;;;;;;18.50;58.70;;;;;;5018952;28;88643;-49
2021/09/27 02:04:38;;;;;;;;;;;18.50;58.70;;;;;;5021676;28;87136;-49
2021/09/27 02:07:04;;;;;;;;;;;18.40;58.70;;;;;;5019002;28;88199;-49
2021/09/27 02:09:30;;;;;;;;;;;18.40;58.70;;;;;;5018195;28;87120;-50
2021/09/27 02:12:06;;;;;;;;;;;18.40;58.70;;;;;;5018890;28;87146;-50
2021/09/27 02:14:37;;;;;;;;;;;18.40;58.70;;;;;;5016776;28;88287;-49
2021/09/27 02:17:03;;;;;;;;;;;18.40;58.70;;;;;;5017511;28;87136;-48
2021/09/27 02:19:28;;;;;;;;;;;18.30;58.70;;;;;;5018266;28;88610;-50
2021/09/27 02:21:55;;;;;;;;;;;18.30;58.70;;;;;;5018110;28;87636;-49
2021/09/27 02:24:29;;;;;;;;;;;18.30;58.70;;;;;;5021012;28;88027;-50
2021/09/27 02:26:54;;;;;;;;;;;18.30;58.70;;;;;;5017934;28;88916;-50
2021/09/27 02:29:21;;;;;;;;;;;18.30;58.70;;;;;;5018334;28;87278;-50
2021/09/27 02:32:01;;;;;;;;;;;18.20;58.70;;;;;;5017724;28;87551;-50
2021/09/27 02:34:30;;;;;;;;;;;18.30;58.70;;;;;;5017462;28;90076;-51
2021/09/27 02:36:55;;;;;;;;;;;18.20;58.70;;;;;;5021642;28;87136;-49
2021/09/27 02:39:24;;;;;;;;;;;18.20;58.80;;;;;;5020805;28;87471;-50
2021/09/27 02:42:08;;;;;;;;;;;18.20;58.70;;;;;;5020600;28;88237;-49
2021/09/27 02:44:34;;;;;;;;;;;18.20;58.80;;;;;;5017107;28;86393;-49
2021/09/27 02:47:01;;;;;;;;;;;18.20;58.80;;;;;;5020516;28;87969;-49
2021/09/27 02:49:29;;;;;;;;;;;18.10;58.70;;;;;;5021562;28;88768;-49
2021/09/27 02:51:59;;;;;;;;;;;18.10;58.70;;;;;;5017587;28;88117;-49
2021/09/27 02:54:47;;;;;;;;;;;18.10;58.70;;;;;;5018053;28;88987;-49
2021/09/27 02:57:24;;;;;;;;;;;18.10;58.70;;;;;;5019882;28;88679;-49
2021/09/27 03:00:03;;;;;;;;;;;18.10;58.80;;;;;;5019056;28;87824;-50
2021/09/27 03:02:39;;;;;;;;;;;18.10;58.70;;;;;;5020820;28;91027;-49
2021/09/27 03:05:05;;;;;;;;;;;18.10;58.70;;;;;;5018908;28;87150;-49
2021/09/27 03:07:49;;;;;;;;;;;18.00;58.70;;;;;;5018411;28;88056;-49
2021/09/27 03:10:25;;;;;;;;;;;18.00;58.80;;;;;;5023283;28;86449;-49
2021/09/27 03:13:13;;;;;;;;;;;18.00;58.70;;;;;;5019625;28;87145;-49
2021/09/27 03:15:41;;;;;;;;;;;18.00;58.80;;;;;;5016021;28;89493;-49
2021/09/27 03:18:22;;;;;;;;;;;18.00;58.80;;;;;;5018053;28;88201;-50
2021/09/27 03:20:55;;;;;;;;;;;18.00;58.80;;;;;;5018209;28;88103;-49
2021/09/27 03:23:26;;;;;;;;;;;18.00;58.80;;;;;;5020512;28;89763;-50
2021/09/27 03:25:58;;;;;;;;;;;17.90;58.80;;;;;;5018608;28;87318;-50
2021/09/27 03:28:39;;;;;;;;;;;17.90;58.80;;;;;;5016578;28;88579;-51
2021/09/27 03:31:09;;;;;;;;;;;17.90;59.40;;;;;;5020690;28;88609;-50
2021/09/27 03:33:34;;;;;;;;;;;17.90;58.80;;;;;;5020652;28;87272;-49
2021/09/27 03:36:18;;;;;;;;;;;17.90;58.80;;;;;;5015749;28;89366;-50
2021/09/27 03:39:05;;;;;;;;;;;17.80;58.80;;;;;;5016926;28;87290;-48
2021/09/27 03:41:40;;;;;;;;;;;17.80;58.80;;;;;;5017862;28;90194;-49
2021/09/27 03:44:14;;;;;;;;;;;17.80;58.90;;;;;;5015559;28;90650;-49
2021/09/27 03:46:52;;;;;;;;;;;17.80;58.90;;;;;;5017069;28;87217;-49
2021/09/27 03:49:20;;;;;;;;;;;17.70;58.90;;;;;;5020087;28;89068;-49
2021/09/27 03:52:00;;;;;;;;;;;17.70;59.00;;;;;;5015691;28;87760;-49
2021/09/27 03:54:37;;;;;;;;;;;17.70;58.90;;;;;;5017374;28;87185;-49
2021/09/27 03:57:08;;;;;;;;;;;17.70;59.00;;;;;;5022928;28;88863;-49
2021/09/27 03:59:37;;;;;;;;;;;17.70;58.90;;;;;;5020379;28;87234;-50
2021/09/27 04:02:08;;;;;;;;;;;17.70;59.00;;;;;;5016510;28;88179;-49
2021/09/27 04:04:54;;;;;;;;;;;17.60;59.00;;;;;;5017691;28;88820;-49
2021/09/27 04:07:40;;;;;;;;;;;17.60;58.90;;;;;;5018405;28;88831;-49
2021/09/27 04:10:05;;;;;;;;;;;17.60;59.00;;;;;;5007674;28;88399;-50
2021/09/27 04:12:46;;;;;;;;;;;17.60;58.90;;;;;;5018953;28;87805;-49
2021/09/27 04:15:27;;;;;;;;;;;17.60;59.00;;;;;;5018509;28;87142;-50
2021/09/27 04:18:10;;;;;;;;;;;17.60;59.00;;;;;;5020197;28;88453;-49
2021/09/27 04:20:54;;;;;;;;;;;17.60;58.90;;;;;;5019641;28;87206;-49
2021/09/27 04:23:28;;;;;;;;;;;17.60;59.00;;;;;;5016958;28;88554;-49
2021/09/27 04:26:07;;;;;;;;;;;17.50;59.00;;;;;;5017944;28;87345;-51
2021/09/27 04:28:48;;;;;;;;;;;17.50;58.90;;;;;;5019785;28;86536;-50
2021/09/27 04:31:23;;;;;;;;;;;17.50;59.00;;;;;;5019276;28;88123;-49
2021/09/27 04:33:49;;;;;;;;;;;17.50;59.00;;;;;;5019335;28;89835;-49
2021/09/27 04:36:22;;;;;;;;;;;17.50;59.00;;;;;;5017060;28;88215;-49
2021/09/27 04:38:49;;;;;;;;;;;17.50;59.10;;;;;;5018186;28;87884;-49
2021/09/27 04:41:33;;;;;;;;;;;17.50;59.00;;;;;;5019942;28;87571;-49
2021/09/27 04:44:02;;;;;;;;;;;17.40;59.00;;;;;;5018083;28;88776;-50
2021/09/27 04:46:32;;;;;;;;;;;17.50;59.00;;;;;;5016944;28;88225;-49
2021/09/27 04:49:09;;;;;;;;;;;17.40;59.00;;;;;;5018052;28;87251;-50
2021/09/27 04:51:41;;;;;;;;;;;17.40;59.00;;;;;;5017904;28;89050;-49
2021/09/27 04:54:17;;;;;;;;;;;17.40;59.10;;;;;;5017821;28;86897;-50
2021/09/27 04:56:58;;;;;;;;;;;17.40;59.10;;;;;;5017473;28;87275;-50
2021/09/27 04:59:36;;;;;;;;;;;17.40;59.00;;;;;;5017700;28;87156;-50
2021/09/27 05:02:01;;;;;;;;;;;17.40;59.10;;;;;;5016461;28;89112;-50
2021/09/27 05:04:27;;;;;;;;;;;17.30;59.00;;;;;;5022553;28;87569;-49
2021/09/27 05:07:00;;;;;;;;;;;17.40;59.10;;;;;;5020035;28;87512;-50
2021/09/27 05:09:46;;;;;;;;;;;17.30;59.10;;;;;;5020498;28;87201;-51
2021/09/27 05:12:30;;;;;;;;;;;17.30;59.10;;;;;;5021225;28;87503;-49
2021/09/27 05:15:20;;;;;;;;;;;17.30;59.20;;;;;;5018104;28;88307;-51
2021/09/27 05:18:05;;;;;;;;;;;17.20;59.10;;;;;;5020239;28;87130;-51
2021/09/27 05:20:37;;;;;;;;;;;17.20;59.10;;;;;;5021753;28;88022;-49
2021/09/27 05:23:12;;;;;;;;;;;17.20;59.10;;;;;;5020582;28;88180;-50
2021/09/27 05:25:40;;;;;;;;;;;17.30;59.20;;;;;;5022561;28;87239;-49
2021/09/27 05:28:44;;;;;;;;;;;17.20;59.20;;;;;;5020866;28;88878;-50
2021/09/27 05:31:10;;;;;;;;;;;17.20;59.20;;;;;;4999510;28;87182;-49
2021/09/27 05:33:44;;;;;;;;;;;17.20;59.20;;;;;;4999072;28;88887;-50
2021/09/27 05:36:28;;;;;;;;;;;17.20;59.10;;;;;;5007836;28;88222;-49
2021/09/27 05:39:03;;;;;;;;;;;17.20;59.10;;;;;;5019192;28;87357;-50
2021/09/27 05:41:37;;;;;;;;;;;17.20;59.80;;;;;;5021229;28;89185;-49
2021/09/27 05:44:12;;;;;;;;;;;17.20;59.20;;;;;;5020130;28;88380;-51
2021/09/27 05:46:50;;;;;;;;;;;17.20;59.20;;;;;;5019716;28;86446;-50
2021/09/27 05:49:23;;;;;;;;;;;17.20;59.20;;;;;;5019665;28;88889;-50
2021/09/27 05:51:52;;;;;;;;;;;17.10;59.30;;;;;;5021845;28;89208;-50
2021/09/27 05:54:26;;;;;;;;;;;17.10;59.30;;;;;;5021670;28;88765;-50
2021/09/27 05:56:57;;;;;;;;;;;17.10;59.30;;;;;;5018164;28;88298;-50
2021/09/27 05:59:37;;;;;;;;;;;17.10;59.20;;;;;;5021927;28;87188;-51
2021/09/27 06:02:12;;;;;;;;;;;17.10;59.30;;;;;;5021471;28;87972;-49
2021/09/27 06:04:45;;;;;;;;;;;17.10;59.30;;;;;;5020613;28;87707;-49
2021/09/27 06:07:20;;;;;;;;;;;17.10;59.40;;;;;;5021162;28;87204;-50
2021/09/27 06:09:54;;;;;;;;;;;17.10;59.40;;;;;;5021966;28;87588;-50
2021/09/27 06:12:37;;;;;;;;;;;17.10;59.40;;;;;;5018215;28;86849;-50
2021/09/27 06:15:04;;;;;;;;;;;17.10;59.40;;;;;;5023615;28;87193;-51
2021/09/27 06:17:41;;;;;;;;;;;17.10;59.40;;;;;;5018856;28;88735;-51
2021/09/27 06:20:12;;;;;;;;;;;17.10;59.30;;;;;;5018582;28;88181;-50
2021/09/27 06:22:56;;;;;;;;;;;17.10;59.30;;;;;;5019422;28;88355;-49
2021/09/27 06:25:27;;;;;;;;;;;17.10;59.30;;;;;;5020446;28;89361;-50
2021/09/27 06:27:59;;;;;;;;;;;17.10;59.40;;;;;;5021546;28;87169;-51
2021/09/27 06:30:30;;;;;;;;;;;17.10;59.40;;;;;;5021615;28;87141;-49
2021/09/27 06:33:01;;;;;;;;;;;17.10;59.50;;;;;;5019661;28;88324;-50
2021/09/27 06:35:30;;;;;;;;;;;17.10;59.50;;;;;;5020912;28;87261;-49
2021/09/27 06:38:00;;;;;;;;;;;17.10;59.50;;;;;;5019577;28;87569;-49
2021/09/27 06:40:26;;;;;;;;;;;17.10;59.60;;;;;;5020668;28;87185;-49
2021/09/27 06:42:51;;;;;;;;;;;17.10;59.60;;;;;;5020168;28;87111;-49
2021/09/27 06:45:17;;;;;;;;;;;17.10;59.50;;;;;;5018181;28;89188;-49
2021/09/27 06:47:43;;;;;;;;;;;17.10;59.60;;;;;;5018165;28;87143;-50
2021/09/27 06:50:10;;;;;;;;;;;17.10;59.60;;;;;;5017248;28;87116;-49
2021/09/27 06:52:35;;;;;;;;;;;17.10;59.60;;;;;;5020904;28;89669;-49
2021/09/27 06:55:01;;;;;;;;;;;17.10;59.70;;;;;;5020530;28;87139;-50
2021/09/27 06:57:26;;;;;;;;;;;17.10;59.80;;;;;;5022444;28;87772;-51
2021/09/27 06:59:53;;;;;;;;;;;17.10;59.80;;;;;;5018758;28;87205;-49
2021/09/27 07:02:19;;;;;;;;;;;17.00;59.80;;;;;;5018634;28;87977;-49
2021/09/27 07:04:44;;;;;;;;;;;17.10;59.80;;;;;;5017019;28;89226;-49
2021/09/27 07:07:10;;;;;;;;;;;17.00;59.80;;;;;;5016901;28;87153;-50
2021/09/27 07:09:36;;;;;;;;;;;17.10;59.80;;;;;;5016370;28;89420;-50
2021/09/27 07:12:02;;;;;;;;;;;17.10;59.90;;;;;;5018120;28;89738;-51
2021/09/27 07:14:27;;;;;;;;;;;17.10;59.90;;;;;;5021438;28;87147;-50
2021/09/27 07:16:53;;;;;;;;;;;17.10;59.90;;;;;;5020096;28;88274;-50
2021/09/27 07:19:18;;;;;;;;;;;17.10;59.80;;;;;;5023923;28;88192;-51
2021/09/27 07:21:44;;;;;;;;;;;17.10;59.80;;;;;;5020451;28;87408;-50
2021/09/27 07:24:11;;;;;;;;;;;17.00;59.90;;;;;;5019116;28;88976;-51
2021/09/27 07:26:36;;;;;;;;;;;17.10;60.00;;;;;;5017920;28;86420;-49
2021/09/27 07:29:02;;;;;;;;;;;17.10;59.90;;;;;;5017424;28;87153;-50
2021/09/27 07:31:30;;;;;;;;;;;17.10;60.00;;;;;;5015334;28;89345;-49
2021/09/27 07:33:56;;;;;;;;;;;17.10;59.90;;;;;;5018845;28;88210;-51
2021/09/27 07:36:22;;;;;;;;;;;17.10;60.00;;;;;;5018449;28;88795;-50
2021/09/27 07:38:48;;;;;;;;;;;17.10;60.00;;;;;;5017436;28;88057;-50
2021/09/27 07:41:14;;;;;;;;;;;17.10;60.00;;;;;;5019838;28;87128;-50
2021/09/27 07:43:39;;;;;;;;;;;17.10;59.90;;;;;;5016009;28;89845;-50
2021/09/27 07:46:05;;;;;;;;;;;17.10;60.00;;;;;;5015981;28;87194;-51
2021/09/27 07:48:31;;;;;;;;;;;17.10;59.90;;;;;;5016230;28;88452;-49
2021/09/27 07:50:56;;;;;;;;;;;17.10;59.90;;;;;;5018965;28;88205;-50
2021/09/27 07:53:23;;;;;;;;;;;17.10;60.00;;;;;;5020852;28;88579;-50
2021/09/27 07:55:49;;;;;;;;;;;17.10;60.00;;;;;;5018414;28;88466;-50
2021/09/27 07:58:17;;;;;;;;;;;17.10;59.90;;;;;;5017647;28;88655;-49
2021/09/27 08:00:43;;;;;;;;;;;17.10;59.90;;;;;;5019617;28;88105;-49
2021/09/27 08:03:09;;;;;;;;;;;17.20;60.00;;;;;;5022235;28;87838;-49
2021/09/27 08:05:37;;;;;;;;;;;17.10;60.00;;;;;;5018779;28;87092;-49
2021/09/27 08:08:02;;;;;;;;;;;17.10;60.00;;;;;;5015759;28;88933;-49
2021/09/27 08:10:29;;;;;;;;;;;17.10;60.00;;;;;;5019528;28;88221;-49
2021/09/27 08:12:55;;;;;;;;;;;17.10;60.00;;;;;;5019165;28;87165;-49
2021/09/27 08:15:22;;;;;;;;;;;17.10;60.00;;;;;;5018346;28;88206;-49
2021/09/27 08:17:49;;;;;;;;;;;17.20;60.00;;;;;;5015412;28;87227;-49
2021/09/27 08:20:16;;;;;;;;;;;17.20;60.00;;;;;;5016303;28;87250;-49
2021/09/27 08:22:42;;;;;;;;;;;17.20;60.00;;;;;;5018883;28;88113;-49
2021/09/27 08:25:08;;;;;;;;;;;17.20;60.00;;;;;;5020901;28;88193;-49
2021/09/27 08:27:34;;;;;;;;;;;17.20;60.00;;;;;;5016791;28;88971;-49
2021/09/27 08:29:59;;;;;;;;;;;17.20;60.10;;;;;;5015888;28;88233;-50
2021/09/27 08:32:25;;;;;;;;;;;17.20;60.10;;;;;;5016713;28;87194;-50
2021/09/27 08:34:53;;;;;;;;;;;17.20;60.10;;;;;;5015998;28;87215;-48
2021/09/27 08:37:19;;;;;;;;;;;17.20;60.00;;;;;;5018462;28;88728;-50
2021/09/27 08:39:47;;;;;;;;;;;17.20;60.10;;;;;;5018456;28;86428;-51
2021/09/27 08:42:24;;;;;;;;;;;17.20;60.10;;;;;;5017763;28;88380;-50
2021/09/27 08:44:55;;;;;;;;;;;17.20;60.10;;;;;;5025960;28;88449;-49
2021/09/27 08:47:27;;;;;;;;;;;17.20;60.80;;;;;;5021736;28;89447;-50
2021/09/27 08:49:57;;;;;;;;;;;17.20;60.20;;;;;;5019445;28;87168;-49
2021/09/27 08:52:24;;;;;;;;;;;17.20;60.20;;;;;;5020711;28;87181;-50
2021/09/27 08:54:51;;;;;;;;;;;17.20;60.20;;;;;;5019268;28;87175;-49
2021/09/27 08:57:35;;;;;;;;;;;17.20;60.20;;;;;;5021952;28;89048;-50
2021/09/27 09:00:05;;;;;;;;;;;17.30;60.30;;;;;;5018821;28;87146;-50
2021/09/27 09:02:33;;;;;;;;;;;17.20;60.30;;;;;;5019003;28;89753;-49
2021/09/27 09:05:11;;;;;;;;;;;17.30;60.30;;;;;;5022551;28;87011;-49
2021/09/27 09:07:41;;;;;;;;;;;17.30;60.30;;;;;;5021842;28;87131;-48
2021/09/27 09:10:08;;;;;;;;;;;17.20;60.30;;;;;;5018698;28;88152;-48
2021/09/27 09:12:35;;;;;;;;;;;17.30;60.40;;;;;;5018814;28;89794;-49
2021/09/27 09:15:07;;;;;;;;;;;17.20;60.40;;;;;;5022016;28;87164;-49
2021/09/27 09:17:38;;;;;;;;;;;17.30;60.50;;;;;;5019717;28;87622;-50
2021/09/27 09:20:09;;;;;;;;;;;17.30;60.50;;;;;;5018941;28;87143;-49
2021/09/27 09:22:36;;;;;;;;;;;17.30;60.50;;;;;;5019716;28;88679;-49
2021/09/27 09:25:07;;;;;;;;;;;17.30;60.50;;;;;;5022458;28;87637;-49
2021/09/27 09:27:33;;;;;;;;;;;17.30;60.50;;;;;;5020582;28;88444;-48
2021/09/27 09:29:58;;;;;;;;;;;17.30;60.50;;;;;;5025918;28;87546;-49
2021/09/27 09:32:29;;;;;;;;;;;17.30;60.50;;;;;;5022250;28;87259;-49
2021/09/27 09:35:13;;;;;;;;;;;17.40;60.40;;;;;;5020483;28;89293;-49
2021/09/27 09:37:41;;;;;;;;;;;17.40;60.40;;;;;;5021816;28;89019;-49
2021/09/27 09:40:22;;;;;;;;;;;17.30;60.50;;;;;;5019358;28;87097;-50
2021/09/27 09:42:55;;;;;;;;;;;17.40;60.50;;;;;;5018544;28;89205;-49
2021/09/27 09:45:23;;;;;;;;;;;17.40;60.40;;;;;;5020852;28;88320;-49
2021/09/27 09:47:48;;;;;;;;;;;17.40;60.50;;;;;;5018328;28;87166;-50
2021/09/27 09:50:26;;;;;;;;;;;17.40;60.40;;;;;;5017576;28;87201;-50
2021/09/27 09:52:53;;;;;;;;;;;17.40;60.50;;;;;;5022136;28;87608;-48
2021/09/27 09:55:22;;;;;;;;;;;17.40;60.50;;;;;;5018174;28;87981;-49
2021/09/27 09:58:05;;;;;;;;;;;17.50;60.50;;;;;;5020432;28;90055;-48
2021/09/27 10:00:34;;;;;;;;;;;17.40;60.40;;;;;;5017861;28;88016;-49
2021/09/27 10:03:00;;;;;;;;;;;17.50;60.50;;;;;;5018592;28;88058;-49
2021/09/27 10:05:32;;;;;;;;;;;17.50;60.40;;;;;;5018132;28;88331;-48
2021/09/27 10:07:58;;;;;;;;;;;17.50;60.40;;;;;;5019312;28;88151;-49
2021/09/27 10:10:41;;;;;;;;;;;17.50;60.30;;;;;;5018391;28;88795;-49
2021/09/27 10:13:36;;;;;;;;;;;17.50;60.40;;;;;;5018670;28;89029;-48
2021/09/27 10:16:13;;;;;;;;;;;17.50;60.60;;;;;;5016638;28;87139;-50
2021/09/27 10:18:39;;;;;;;;;;;17.50;60.70;;;;;;5021860;28;87958;-49
2021/09/27 10:21:23;;;;;;;;;;;17.50;60.80;;;;;;5021400;28;86422;-49
2021/09/27 10:23:50;;;;;;;;;;;17.50;60.70;;;;;;5020806;28;88039;-48
2021/09/27 10:26:27;;;;;;;;;;;17.50;60.60;;;;;;5019151;28;88104;-49
2021/09/27 10:28:55;;;;;;;;;;;17.60;60.50;;;;;;5016513;28;88106;-48
2021/09/27 10:31:23;;;;;;;;;;;17.60;60.80;;;;;;5021272;28;88531;-48
2021/09/27 10:34:09;;;;;;;;;;;17.60;60.70;;;;;;5018331;28;89750;-49
2021/09/27 10:36:43;;;;;;;;;;;17.60;60.80;;;;;;5019144;28;87165;-48
2021/09/27 10:39:10;;;;;;;;;;;17.60;60.80;;;;;;5022102;28;88498;-50
2021/09/27 10:41:36;;;;;;;;;;;17.60;61.50;;;;;;5020621;28;87135;-50
2021/09/27 10:44:07;;;;;;;;;;;17.60;61.00;;;;;;5018861;28;88915;-50
2021/09/27 10:46:36;;;;;;;;;;;17.60;61.00;;;;;;5018712;28;86534;-49
2021/09/27 10:49:03;;;;;;;;;;;17.60;60.60;;;;;;5018059;28;87208;-50
2021/09/27 10:51:30;;;;;;;;;;;17.70;60.90;;;;;;5018896;28;88821;-49
2021/09/27 10:54:01;;;;;;;;;;;17.70;60.90;;;;;;5018807;28;90358;-49
2021/09/27 10:56:34;;;;;;;;;;;17.70;61.00;;;;;;5019087;28;88736;-49
2021/09/27 10:59:23;;;;;;;;;;;17.70;61.30;;;;;;5023526;28;88087;-49
2021/09/27 11:01:53;;;;;;;;;;;17.80;61.10;;;;;;5013885;28;87121;-49
2021/09/27 11:04:20;;;;;;;;;;;17.80;61.20;;;;;;5019180;28;88998;-50
2021/09/27 11:06:51;;;;;;;;;;;17.80;61.10;;;;;;5019960;28;88293;-48
2021/09/27 11:09:26;;;;;;;;;;;17.80;61.00;;;;;;5017945;28;88847;-49
2021/09/27 11:12:06;;;;;;;;;;;17.90;60.90;;;;;;5020711;28;88627;-50
2021/09/27 11:14:47;;;;;;;;;;;17.90;61.20;;;;;;5018315;28;88162;-48
2021/09/27 11:17:19;;;;;;;;;;;17.90;61.20;;;;;;5020054;28;87952;-49
2021/09/27 11:19:58;;;;;;;;;;;17.90;61.00;;;;;;5018159;28;88126;-49
2021/09/27 11:22:35;;;;;;;;;;;17.90;61.20;;;;;;5022483;28;88383;-49
2021/09/27 11:25:12;;;;;;;;;;;17.90;61.30;;;;;;5020280;28;89270;-48
2021/09/27 11:27:38;;;;;;;;;;;18.00;61.40;;;;;;5018090;28;89069;-49
2021/09/27 11:30:22;;;;;;;;;;;18.00;61.20;;;;;;5019548;28;87192;-50
2021/09/27 11:32:50;;;;;;;;;;;18.00;61.40;;;;;;5019184;28;87420;-49
2021/09/27 11:35:21;;;;;;;;;;;18.00;61.40;;;;;;5016773;28;89436;-48
2021/09/27 11:37:47;;;;;;;;;;;18.00;61.70;;;;;;5019967;28;87264;-49
2021/09/27 11:40:12;;;;;;;;;;;18.00;61.80;;;;;;5017131;28;87137;-52
2021/09/27 11:43:07;;;;;;;;;;;18.10;61.80;;;;;;5017045;28;88065;-49
2021/09/27 11:45:40;;;;;;;;;;;18.10;61.70;;;;;;5021909;28;88093;-49
2021/09/27 11:48:10;;;;;;;;;;;18.10;61.50;;;;;;5019258;28;88947;-49
2021/09/27 11:50:48;;;;;;;;;;;18.10;61.60;;;;;;5016916;28;88172;-50
2021/09/27 11:53:15;;;;;;;;;;;18.10;61.70;;;;;;5016919;28;88972;-49
2021/09/27 11:55:46;;;;;;;;;;;18.20;61.40;;;;;;5017335;28;89194;-49
2021/09/27 11:58:24;;;;;;;;;;;18.20;61.50;;;;;;5019261;28;88584;-49
2021/09/27 12:00:55;;;;;;;;;;;18.20;61.50;;;;;;5019069;28;87735;-50
2021/09/27 12:03:59;;;;;;;;;;;18.20;61.60;;;;;;5017486;28;87582;-49
2021/09/27 12:06:32;;;;;;;;;;;18.20;61.50;;;;;;4996778;28;87378;-49
2021/09/27 12:09:03;;;;;;;;;;;18.20;61.50;;;;;;4997898;28;87661;-49
2021/09/27 12:11:31;;;;;;;;;;;18.30;61.50;;;;;;5008574;28;89042;-48
2021/09/27 12:13:59;;;;;;;;;;;18.30;61.40;;;;;;5019499;28;88854;-49
2021/09/27 12:16:28;;;;;;;;;;;18.30;61.10;;;;;;5019014;28;89344;-48
2021/09/27 12:19:02;;;;;;;;;;;18.30;61.30;;;;;;5020487;28;87197;-48
2021/09/27 12:21:30;;;;;;;;;;;18.30;61.40;;;;;;5020964;28;88025;-51
2021/09/27 12:23:57;;;;;;;;;;;18.40;61.30;;;;;;5020186;28;89260;-49
2021/09/27 12:26:28;;;;;;;;;;;18.40;61.40;;;;;;5022812;28;87149;-49
2021/09/27 12:29:20;;;;;;;;;;;18.40;61.50;;;;;;5022724;28;87628;-48
2021/09/27 12:31:49;;;;;;;;;;;18.40;61.40;;;;;;5021435;28;89218;-48
2021/09/27 12:34:15;;;;;;;;;;;18.40;61.30;;;;;;5020732;28;88953;-49
2021/09/27 12:36:41;;;;;;;;;;;18.50;61.20;;;;;;5022703;28;89716;-48
2021/09/27 12:39:07;;;;;;;;;;;18.50;61.20;;;;;;5021939;28;87137;-49
2021/09/27 12:41:33;;;;;;;;;;;18.50;61.20;;;;;;5018877;28;89817;-49
2021/09/27 12:44:06;;;;;;;;;;;18.50;61.10;;;;;;5019609;28;89383;-48
2021/09/27 12:46:32;;;;;;;;;;;18.60;61.10;;;;;;5021891;28;87130;-50
2021/09/27 12:48:59;;;;;;;;;;;18.60;61.20;;;;;;5019918;28;89240;-50
2021/09/27 12:51:31;;;;;;;;;;;18.60;61.30;;;;;;5019909;28;88191;-48
2021/09/27 12:54:15;;;;;;;;;;;18.50;61.20;;;;;;5025624;28;86534;-50
2021/09/27 12:56:41;;;;;;;;;;;18.60;61.30;;;;;;5020537;28;88168;-49
2021/09/27 12:59:14;;;;;;;;;;;18.60;61.40;;;;;;5022282;28;87813;-49
2021/09/27 13:01:44;;;;;;;;;;;18.60;61.20;;;;;;5021400;28;89276;-49
2021/09/27 13:04:18;;;;;;;;;;;18.70;61.20;;;;;;5020464;28;87945;-48
2021/09/27 13:06:46;;;;;;;;;;;18.70;60.90;;;;;;5019707;28;88856;-49
2021/09/27 13:09:20;;;;;;;;;;;18.70;61.10;;;;;;5020361;28;87204;-49
2021/09/27 13:11:51;;;;;;;;;;;18.70;61.20;;;;;;5020644;28;89293;-49
2021/09/27 13:14:17;;;;;;;;;;;18.70;61.20;;;;;;5023557;28;87284;-49
2021/09/27 13:16:45;;;;;;;;;;;18.70;61.00;;;;;;5021724;28;87734;-48
2021/09/27 13:19:30;;;;;;;;;;;18.80;61.10;;;;;;5022333;28;87024;-49
2021/09/27 13:21:58;;;;;;;;;;;18.80;61.10;;;;;;5019662;28;87113;-50
2021/09/27 13:24:27;;;;;;;;;;;18.80;61.00;;;;;;5018874;28;87260;-48
2021/09/27 13:27:11;;;;;;;;;;;18.90;61.10;;;;;;5019277;28;88072;-49
2021/09/27 13:29:43;;;;;;;;;;;18.90;61.00;;;;;;5018978;28;89919;-49
2021/09/27 13:32:18;;;;;;;;;;;18.90;61.00;;;;;;5017951;28;88022;-48
2021/09/27 13:34:46;;;;;;;;;;;18.90;61.10;;;;;;5018794;28;87200;-50
2021/09/27 13:37:17;;;;;;;;;;;19.00;61.10;;;;;;5021686;28;88957;-50
2021/09/27 13:39:43;;;;;;;;;;;19.00;61.00;;;;;;5022482;28;87184;-49
2021/09/27 13:42:09;;;;;;;;;;;19.00;61.00;;;;;;5019522;28;87402;-49
2021/09/27 13:44:37;;;;;;;;;;;19.10;60.80;;;;;;5018696;28;88274;-50
2021/09/27 13:47:06;;;;;;;;;;;19.00;61.00;;;;;;5021641;28;87164;-49
2021/09/27 13:49:32;;;;;;;;;;;19.00;61.10;;;;;;5020723;28;87218;-49
2021/09/27 13:51:58;;;;;;;;;;;19.10;61.10;;;;;;5020064;28;88725;-49
2021/09/27 13:54:23;;;;;;;;;;;19.10;61.00;;;;;;5022439;28;87191;-49
2021/09/27 13:56:49;;;;;;;;;;;19.10;61.00;;;;;;5020715;28;87343;-49
2021/09/27 13:59:14;;;;;;;;;;;19.10;61.00;;;;;;5021907;28;88787;-49
2021/09/27 14:01:40;;;;;;;;;;;19.10;61.00;;;;;;5021048;28;87332;-50
2021/09/27 14:04:05;;;;;;;;;;;19.20;61.00;;;;;;5018465;28;87461;-50
2021/09/27 14:06:32;;;;;;;;;;;19.20;60.90;;;;;;5021368;28;87261;-49
2021/09/27 14:08:58;;;;;;;;;;;19.20;60.80;;;;;;5020261;28;88885;-49
2021/09/27 14:11:24;;;;;;;;;;;19.20;60.90;;;;;;5018454;28;89326;-48
2021/09/27 14:13:50;;;;;;;;;;;19.20;60.90;;;;;;5020928;28;87242;-49
2021/09/27 14:16:17;;;;;;;;;;;19.30;60.90;;;;;;5018640;28;88221;-48
2021/09/27 14:18:44;;;;;;;;;;;19.30;60.90;;;;;;5018742;28;88586;-50
2021/09/27 14:21:10;;;;;;;;;;;19.30;60.90;;;;;;5021635;28;87190;-49
2021/09/27 14:23:35;;;;;;;;;;;19.30;60.90;;;;;;5019565;28;87930;-49
2021/09/27 14:26:04;;;;;;;;;;;19.30;60.60;;;;;;5019831;28;87196;-49
2021/09/27 14:28:30;;;;;;;;;;;19.30;60.70;;;;;;5019042;28;89099;-49
2021/09/27 14:30:56;;;;;;;;;;;19.40;60.80;;;;;;5017829;28;87807;-49
2021/09/27 14:33:24;;;;;;;;;;;19.40;60.70;;;;;;5017751;28;86394;-49
2021/09/27 14:35:50;;;;;;;;;;;19.40;60.70;;;;;;5019492;28;88024;-49
2021/09/27 14:38:15;;;;;;;;;;;19.40;61.40;;;;;;5019680;28;89400;-50
2021/09/27 14:40:41;;;;;;;;;;;19.40;60.70;;;;;;5020444;28;88118;-49